createdAt,value
2023-05-18T00:01:55.564Z,101960.04
2023-05-18T00:04:25.402Z,101964.62
2023-05-18T00:07:00.115Z,101956.87
2023-05-18T00:09:28.083Z,101956.02
2023-05-18T00:11:56.109Z,101949.45
2023-05-18T00:14:24.129Z,101944.09
2023-05-18T00:16:55.220Z,101947.58
2023-05-18T00:19:24.033Z,101936.99
2023-05-18T00:21:53.114Z,101938.46
2023-05-18T00:24:21.127Z,101934.80
2023-05-18T00:26:49.671Z,101923.06
2023-05-18T00:29:17.990Z,101929.08
2023-05-18T00:31:46.784Z,101926.55
2023-05-18T00:34:15.299Z,101922.54
2023-05-18T00:36:43.352Z,101924.20
2023-05-18T00:39:11.683Z,101924.86
2023-05-18T00:41:40.153Z,101918.29
2023-05-18T00:44:08.248Z,101921.59
2023-05-18T00:46:36.427Z,101924.43
2023-05-18T00:49:04.490Z,101915.15
2023-05-18T00:51:33.946Z,101912.92
2023-05-18T00:54:02.506Z,101914.10
2023-05-18T00:56:30.557Z,101905.83
2023-05-18T00:58:58.861Z,101903.97
2023-05-18T01:01:31.468Z,101901.41
2023-05-18T01:03:59.697Z,101892.85
2023-05-18T01:06:27.711Z,101891.48
2023-05-18T01:08:55.735Z,101885.27
2023-05-18T01:11:34.272Z,101892.45
2023-05-18T01:14:21.638Z,101889.05
2023-05-18T01:16:55.699Z,101889.05
2023-05-18T01:19:46.261Z,101893.41
2023-05-18T01:22:40.202Z,101895.10
2023-05-18T01:25:31.236Z,101894.91
2023-05-18T01:28:07.617Z,101890.33
2023-05-18T01:30:37.582Z,101885.82
2023-05-18T01:33:10.919Z,101887.29
2023-05-18T01:35:39.118Z,101880.75
2023-05-18T01:38:07.141Z,101879.90
2023-05-18T01:43:07.927Z,101873.13
2023-05-18T01:45:36.179Z,101870.26
2023-05-18T01:48:04.271Z,101861.72
2023-05-18T01:50:39.097Z,101866.56
2023-05-18T01:53:25.131Z,101854.34
2023-05-18T01:55:54.339Z,101860.02
2023-05-18T01:58:22.715Z,101861.49
2023-05-18T02:00:50.694Z,101856.33
2023-05-18T02:03:18.978Z,101860.58
2023-05-18T02:05:48.641Z,101850.31
2023-05-18T02:08:17.717Z,101856.98
2023-05-18T02:10:45.708Z,101851.59
2023-05-18T02:13:13.661Z,101850.12
2023-05-18T02:15:41.772Z,101852.44
2023-05-18T02:18:09.842Z,101847.04
2023-05-18T02:20:39.466Z,101845.87
2023-05-18T02:23:07.523Z,101842.73
2023-05-18T02:25:35.601Z,101839.98
2023-05-18T02:28:03.577Z,101845.87
2023-05-18T02:30:34.569Z,101840.50
2023-05-18T02:33:02.622Z,101839.98
2023-05-18T02:35:31.109Z,101846.29
2023-05-18T02:37:59.590Z,101846.29
2023-05-18T02:40:27.579Z,101839.75
2023-05-18T02:42:55.570Z,101833.21
2023-05-18T02:45:23.656Z,101840.41
2023-05-18T02:47:51.706Z,101834.68
2023-05-18T02:50:19.677Z,101833.54
2023-05-18T02:52:50.466Z,101828.47
2023-05-18T02:55:18.725Z,101836.80
2023-05-18T02:57:48.473Z,101836.28
2023-05-18T03:00:18.100Z,101833.96
2023-05-18T03:02:49.693Z,101834.59
2023-05-18T03:05:18.147Z,101836.05
2023-05-18T03:07:52.072Z,101836.38
2023-05-18T03:10:20.825Z,101829.84
2023-05-18T03:12:49.334Z,101829.13
2023-05-18T03:15:20.962Z,101830.79
2023-05-18T03:17:48.981Z,101832.82
2023-05-18T03:20:16.983Z,101831.97
2023-05-18T03:22:44.958Z,101830.59
2023-05-18T03:25:13.502Z,101829.19
2023-05-18T03:27:41.525Z,101830.92
2023-05-18T03:30:10.296Z,101824.35
2023-05-18T03:32:38.536Z,101840.30
2023-05-18T03:35:07.063Z,101830.92
2023-05-18T03:37:35.162Z,101829.84
2023-05-18T03:40:12.517Z,101825.20
2023-05-18T03:42:41.210Z,101826.02
2023-05-18T03:45:10.201Z,101833.44
2023-05-18T03:47:38.682Z,101825.40
2023-05-18T03:50:07.416Z,101824.02
2023-05-18T03:52:35.897Z,101829.98
2023-05-18T03:55:03.914Z,101836.80
2023-05-18T03:57:32.544Z,101842.50
2023-05-18T04:00:00.710Z,101839.12
2023-05-18T04:02:28.829Z,101836.80
2023-05-18T04:04:59.364Z,101844.20
2023-05-18T04:07:27.852Z,101833.11
2023-05-18T04:09:57.487Z,101834.29
2023-05-18T04:12:25.567Z,101830.27
2023-05-18T04:14:55.788Z,101835.95
2023-05-18T04:17:24.235Z,101825.40
2023-05-18T04:19:52.564Z,101839.36
2023-05-18T04:22:20.608Z,101833.44
2023-05-18T04:24:48.841Z,101835.44
2023-05-18T04:27:16.809Z,101831.12
2023-05-18T04:29:45.525Z,101832.49
2023-05-18T04:32:13.563Z,101837.00
2023-05-18T04:34:42.299Z,101843.87
2023-05-18T04:37:11.839Z,101848.12
2023-05-18T04:39:40.900Z,101852.86
2023-05-18T04:42:09.068Z,101850.87
2023-05-18T04:44:38.811Z,101851.39
2023-05-18T04:47:09.733Z,101856.23
2023-05-18T04:49:37.696Z,101850.34
2023-05-18T04:52:07.926Z,101856.03
2023-05-18T04:54:35.877Z,101850.87
2023-05-18T04:57:04.998Z,101848.02
2023-05-18T04:59:33.044Z,101852.77
2023-05-18T05:02:01.023Z,101854.13
2023-05-18T05:04:29.093Z,101855.80
2023-05-18T05:06:57.125Z,101853.52
2023-05-18T05:09:25.158Z,101859.40
2023-05-18T05:11:53.271Z,101860.25
2023-05-18T05:14:21.298Z,101857.30
2023-05-18T05:16:49.306Z,101859.53
2023-05-18T05:19:17.389Z,101856.33
2023-05-18T05:21:45.417Z,101850.64
2023-05-18T05:24:13.484Z,101849.49
2023-05-18T05:26:41.732Z,101848.52
2023-05-18T05:29:09.738Z,101837.00
2023-05-18T05:31:37.748Z,101838.90
2023-05-18T05:34:05.758Z,101840.80
2023-05-18T05:36:35.162Z,101840.99
2023-05-18T05:39:03.298Z,101836.02
2023-05-18T05:41:32.465Z,101836.41
2023-05-18T05:44:00.720Z,101837.82
2023-05-18T05:46:28.851Z,101832.49
2023-05-18T05:48:57.494Z,101838.73
2023-05-18T05:51:25.575Z,101835.76
2023-05-18T05:53:53.544Z,101833.96
2023-05-18T05:56:21.559Z,101838.84
2023-05-18T05:58:49.527Z,101843.25
2023-05-18T06:01:17.512Z,101836.05
2023-05-18T06:03:46.557Z,101837.27
2023-05-18T06:06:14.666Z,101848.25
2023-05-18T06:08:42.763Z,101841.81
2023-05-18T06:11:11.569Z,101843.34
2023-05-18T06:13:40.042Z,101846.42
2023-05-18T06:16:08.101Z,101846.29
2023-05-18T06:18:36.406Z,101847.86
2023-05-18T06:21:04.547Z,101855.97
2023-05-18T06:23:32.512Z,101848.22
2023-05-18T06:26:00.617Z,101858.81
2023-05-18T06:28:28.622Z,101851.48
2023-05-18T06:30:56.663Z,101848.16
2023-05-18T06:33:25.143Z,101859.66
2023-05-18T06:35:53.118Z,101863.39
2023-05-18T06:38:21.194Z,101860.25
2023-05-18T06:40:49.257Z,101861.49
2023-05-18T06:43:17.328Z,101856.78
2023-05-18T06:45:45.476Z,101867.94
2023-05-18T06:48:13.596Z,101866.59
2023-05-18T06:50:41.610Z,101870.16
2023-05-18T06:53:09.729Z,101862.60
2023-05-18T06:55:37.765Z,101861.46
2023-05-18T06:58:05.868Z,101861.95
2023-05-18T07:00:33.833Z,101863.13
2023-05-18T07:03:03.061Z,101861.76
2023-05-18T07:05:31.950Z,101868.00
2023-05-18T07:08:00.349Z,101869.70
2023-05-18T07:10:30.380Z,101870.52
2023-05-18T07:12:59.418Z,101859.59
2023-05-18T07:15:27.978Z,101868.55
2023-05-18T07:17:56.113Z,101863.20
2023-05-18T07:20:26.200Z,101859.01
2023-05-18T07:22:56.557Z,101868.78
2023-05-18T07:25:24.893Z,101880.78
2023-05-18T07:27:54.587Z,101863.00
2023-05-18T07:30:23.532Z,101866.37
2023-05-18T07:32:52.778Z,101870.74
2023-05-18T07:35:21.644Z,101872.77
2023-05-18T07:37:51.351Z,101864.99
2023-05-18T07:40:19.550Z,101866.37
2023-05-18T07:42:47.681Z,101867.34
2023-05-18T07:45:15.714Z,101860.09
2023-05-18T07:47:43.981Z,101870.19
2023-05-18T07:50:12.434Z,101868.09
2023-05-18T07:52:40.649Z,101863.65
2023-05-18T07:55:09.101Z,101861.40
2023-05-18T07:57:37.555Z,101864.66
2023-05-18T08:00:07.855Z,101857.54
2023-05-18T08:02:36.044Z,101854.37
2023-05-18T08:05:04.248Z,101858.84
2023-05-18T08:07:34.286Z,101859.86
2023-05-18T08:10:02.344Z,101844.98
2023-05-18T08:12:31.310Z,101859.14
2023-05-18T08:15:04.331Z,101852.30
2023-05-18T08:17:33.003Z,101860.19
2023-05-18T08:20:01.136Z,101855.38
2023-05-18T08:22:29.125Z,101854.73
2023-05-18T08:24:57.982Z,101861.98
2023-05-18T08:27:26.077Z,101858.45
2023-05-18T08:29:54.176Z,101860.12
2023-05-18T08:32:22.719Z,101855.09
2023-05-18T08:34:53.116Z,101857.63
2023-05-18T08:37:21.443Z,101858.62
2023-05-18T08:39:49.477Z,101861.63
2023-05-18T08:42:49.294Z,101859.40
2023-05-18T08:45:33.364Z,101861.07
2023-05-18T08:48:02.089Z,101853.52
2023-05-18T08:50:32.113Z,101854.63
2023-05-18T08:53:03.128Z,101848.31
2023-05-18T08:55:31.484Z,101850.37
2023-05-18T08:58:01.288Z,101847.76
2023-05-18T09:00:29.871Z,101843.12
2023-05-18T09:02:58.329Z,101843.25
2023-05-18T09:05:26.665Z,101826.09
2023-05-18T09:07:54.676Z,101837.49
2023-05-18T09:10:22.928Z,101836.80
2023-05-18T09:12:51.032Z,101846.06
2023-05-18T09:15:19.173Z,101836.80
2023-05-18T09:17:47.429Z,101830.98
2023-05-18T09:20:15.738Z,101830.98
2023-05-18T09:22:43.737Z,101823.08
2023-05-18T09:25:12.268Z,101816.47
2023-05-18T09:27:40.593Z,101823.80
2023-05-18T09:30:12.120Z,101824.71
2023-05-18T09:32:40.428Z,101818.86
2023-05-18T09:35:09.341Z,101815.45
2023-05-18T09:37:37.677Z,101823.01
2023-05-18T09:40:08.148Z,101826.90
2023-05-18T09:42:43.747Z,101821.57
2023-05-18T09:45:28.127Z,101819.94
2023-05-18T09:47:56.552Z,101825.66
2023-05-18T09:50:25.068Z,101820.98
2023-05-18T09:52:53.199Z,101823.73
2023-05-18T09:55:21.349Z,101818.56
2023-05-18T09:57:50.929Z,101820.52
2023-05-18T10:00:22.261Z,101828.96
2023-05-18T10:02:53.945Z,101837.33
2023-05-18T10:05:23.252Z,101829.81
2023-05-18T10:07:54.777Z,101832.82
2023-05-18T10:10:24.249Z,101827.29
2023-05-18T10:12:53.264Z,101829.55
2023-05-18T10:15:23.136Z,101824.38
2023-05-18T10:17:52.429Z,101825.49
2023-05-18T10:20:21.458Z,101827.16
2023-05-18T10:22:50.082Z,101820.88
2023-05-18T10:25:21.256Z,101818.73
2023-05-18T10:27:53.889Z,101818.01
2023-05-18T10:30:23.343Z,101818.73
2023-05-18T10:32:51.529Z,101816.70
2023-05-18T10:35:19.546Z,101820.55
2023-05-18T10:37:51.547Z,101818.62
2023-05-18T10:40:19.790Z,101823.89
2023-05-18T10:42:47.953Z,101818.86
2023-05-18T10:45:16.669Z,101821.02
2023-05-18T10:47:45.374Z,101820.16
2023-05-18T10:50:13.545Z,101821.02
2023-05-18T10:52:41.722Z,101830.86
2023-05-18T10:55:10.283Z,101818.98
2023-05-18T10:57:43.788Z,101815.85
2023-05-18T11:00:12.154Z,101825.63
2023-05-18T11:02:44.140Z,101815.88
2023-05-18T11:05:12.986Z,101814.31
2023-05-18T11:07:41.211Z,101806.50
2023-05-18T11:10:10.969Z,101816.47
2023-05-18T11:12:39.677Z,101817.09
2023-05-18T11:15:08.473Z,101817.32
2023-05-18T11:17:36.635Z,101812.97
2023-05-18T11:20:09.440Z,101824.25
2023-05-18T11:23:00.561Z,101812.16
2023-05-18T11:25:28.714Z,101815.26
2023-05-18T11:27:59.068Z,101827.75
2023-05-18T11:30:37.741Z,101827.65
2023-05-18T11:33:20.312Z,101819.70
2023-05-18T11:36:10.210Z,101816.70
2023-05-18T11:39:04.200Z,101819.70
2023-05-18T11:41:40.695Z,101826.93
2023-05-18T11:44:17.719Z,101822.09
2023-05-18T11:46:57.893Z,101821.27
2023-05-18T11:49:46.952Z,101822.23
2023-05-18T11:52:24.894Z,101826.77
2023-05-18T11:54:54.352Z,101819.22
2023-05-18T11:57:43.573Z,101821.73
2023-05-18T12:00:13.471Z,101831.80
2023-05-18T12:02:44.807Z,101827.98
2023-05-18T12:05:13.168Z,101823.30
2023-05-18T12:07:41.502Z,101820.79
2023-05-18T12:10:11.187Z,101822.09
2023-05-18T12:12:39.720Z,101821.02
2023-05-18T12:15:09.434Z,101818.01
2023-05-18T12:17:47.350Z,101814.67
2023-05-18T12:20:15.362Z,101820.66
2023-05-18T12:22:47.836Z,101823.76
2023-05-18T12:25:15.932Z,101817.91
2023-05-18T12:27:49.152Z,101823.17
2023-05-18T12:30:17.007Z,101828.80
2023-05-18T12:32:53.292Z,101824.25
2023-05-18T12:35:25.473Z,101827.85
2023-05-18T12:37:53.637Z,101825.46
2023-05-18T12:40:21.889Z,101825.79
2023-05-18T12:43:00.978Z,101826.51
2023-05-18T12:45:33.595Z,101826.41
2023-05-18T12:48:12.454Z,101823.86
2023-05-18T12:50:50.614Z,101834.55
2023-05-18T12:53:19.279Z,101838.97
2023-05-18T12:55:47.250Z,101834.78
2023-05-18T12:58:18.138Z,101831.41
2023-05-18T13:00:47.381Z,101832.13
2023-05-18T13:03:19.946Z,101837.40
2023-05-18T13:06:07.777Z,101832.46
2023-05-18T13:08:36.412Z,101825.88
2023-05-18T13:11:13.607Z,101831.51
2023-05-18T13:14:07.867Z,101836.41
2023-05-18T13:16:36.530Z,101829.84
2023-05-18T13:19:09.646Z,101834.26
2023-05-18T13:21:37.895Z,101821.93
2023-05-18T13:24:06.328Z,101824.94
2023-05-18T13:26:34.460Z,101824.55
2023-05-18T13:29:02.553Z,101827.42
2023-05-18T13:31:33.518Z,101823.01
2023-05-18T13:34:01.835Z,101825.88
2023-05-18T13:36:31.055Z,101823.50
2023-05-18T13:38:59.127Z,101824.71
2023-05-18T13:41:27.293Z,101823.99
2023-05-18T13:43:55.377Z,101828.66
2023-05-18T13:46:23.458Z,101835.95
2023-05-18T13:48:51.496Z,101827.00
2023-05-18T13:51:19.596Z,101824.45
2023-05-18T13:53:47.685Z,101829.02
2023-05-18T13:56:15.634Z,101830.20
2023-05-18T13:58:45.013Z,101829.38
2023-05-18T14:01:14.022Z,101824.32
2023-05-18T14:03:42.394Z,101829.26
2023-05-18T14:06:10.573Z,101826.37
2023-05-18T14:08:38.664Z,101829.58
2023-05-18T14:11:06.883Z,101827.91
2023-05-18T14:13:34.914Z,101825.04
2023-05-18T14:16:03.006Z,101829.58
2023-05-18T14:18:31.022Z,101824.32
2023-05-18T14:21:03.405Z,101825.52
2023-05-18T14:23:31.508Z,101823.50
2023-05-18T14:25:59.567Z,101821.11
2023-05-18T14:28:27.551Z,101825.66
2023-05-18T14:30:55.679Z,101821.44
2023-05-18T14:33:23.706Z,101826.02
2023-05-18T14:35:51.713Z,101819.41
2023-05-18T14:38:19.739Z,101823.50
2023-05-18T14:40:47.788Z,101813.20
2023-05-18T14:43:15.834Z,101824.84
2023-05-18T14:45:48.324Z,101822.78
2023-05-18T14:48:21.458Z,101817.74
2023-05-18T14:50:49.522Z,101809.84
2023-05-18T14:53:17.516Z,101820.13
2023-05-18T14:55:45.605Z,101814.73
2023-05-18T14:58:16.206Z,101819.19
2023-05-18T15:00:44.314Z,101819.67
2023-05-18T15:03:12.646Z,101821.67
2023-05-18T15:05:40.925Z,101821.34
2023-05-18T15:08:09.042Z,101810.91
2023-05-18T15:10:37.260Z,101811.27
2023-05-18T15:13:05.298Z,101809.60
2023-05-18T15:15:33.311Z,101807.91
2023-05-18T15:18:01.298Z,101814.02
2023-05-18T15:20:29.508Z,101815.69
2023-05-18T15:22:57.739Z,101811.86
2023-05-18T15:25:25.780Z,101817.62
2023-05-18T15:27:54.990Z,101817.13
2023-05-18T15:30:23.045Z,101810.03
2023-05-18T15:32:51.143Z,101818.20
2023-05-18T15:35:19.223Z,101807.87
2023-05-18T15:37:47.554Z,101813.16
2023-05-18T15:40:15.609Z,101821.31
2023-05-18T15:42:43.831Z,101812.55
2023-05-18T15:45:12.249Z,101805.98
2023-05-18T15:47:40.408Z,101816.14
2023-05-18T15:50:08.785Z,101812.97
2023-05-18T15:52:36.806Z,101811.80
2023-05-18T15:55:04.876Z,101807.09
2023-05-18T15:57:34.476Z,101821.87
2023-05-18T16:00:02.551Z,101817.29
2023-05-18T16:02:30.709Z,101817.29
2023-05-18T16:04:58.787Z,101819.31
2023-05-18T16:07:26.896Z,101811.53
2023-05-18T16:09:54.993Z,101812.84
2023-05-18T16:12:22.989Z,101817.29
2023-05-18T16:14:51.656Z,101813.92
2023-05-18T16:17:19.886Z,101813.10
2023-05-18T16:19:48.225Z,101814.28
2023-05-18T16:22:16.344Z,101809.73
2023-05-18T16:24:44.985Z,101817.52
2023-05-18T16:27:13.066Z,101806.37
2023-05-18T16:29:42.746Z,101807.19
2023-05-18T16:32:11.437Z,101818.37
2023-05-18T16:34:39.496Z,101811.77
2023-05-18T16:37:07.547Z,101810.06
2023-05-18T16:39:35.677Z,101811.27
2023-05-18T16:42:03.741Z,101811.27
2023-05-18T16:44:31.858Z,101814.51
2023-05-18T16:47:00.062Z,101816.90
2023-05-18T16:49:28.246Z,101814.02
2023-05-18T16:51:56.249Z,101817.71
2023-05-18T16:54:24.446Z,101817.71
2023-05-18T16:56:53.347Z,101812.35
2023-05-18T16:59:23.999Z,101818.10
2023-05-18T17:01:52.053Z,101813.04
2023-05-18T17:04:20.155Z,101814.18
2023-05-18T17:06:48.291Z,101810.16
2023-05-18T17:09:17.687Z,101817.91
2023-05-18T17:11:45.743Z,101816.24
2023-05-18T17:14:13.822Z,101818.27
2023-05-18T17:16:42.434Z,101814.05
2023-05-18T17:19:10.543Z,101811.56
2023-05-18T17:21:38.588Z,101814.05
2023-05-18T17:24:06.777Z,101822.68
2023-05-18T17:26:34.774Z,101828.80
2023-05-18T17:29:02.952Z,101828.80
2023-05-18T17:31:31.823Z,101834.55
2023-05-18T17:33:59.933Z,101826.28
2023-05-18T17:36:28.037Z,101826.48
2023-05-18T17:38:57.506Z,101826.02
2023-05-18T17:41:27.137Z,101835.47
2023-05-18T17:43:55.177Z,101840.01
2023-05-18T17:46:23.242Z,101835.47
2023-05-18T17:48:51.399Z,101833.27
2023-05-18T17:51:19.473Z,101839.03
2023-05-18T17:53:47.685Z,101844.42
2023-05-18T17:56:15.764Z,101842.23
2023-05-18T17:58:43.825Z,101835.20
2023-05-18T18:01:13.495Z,101836.87
2023-05-18T18:03:41.645Z,101840.24
2023-05-18T18:06:10.024Z,101840.08
2023-05-18T18:08:38.299Z,101846.68
2023-05-18T18:11:09.055Z,101838.90
2023-05-18T18:13:37.381Z,101842.50
2023-05-18T18:16:05.686Z,101842.82
2023-05-18T18:18:34.126Z,101835.40
2023-05-18T18:21:02.216Z,101838.28
2023-05-18T18:23:30.208Z,101843.51
2023-05-18T18:25:58.195Z,101833.57
2023-05-18T18:28:26.254Z,101837.63
2023-05-18T18:30:54.464Z,101838.34
2023-05-18T18:33:22.715Z,101835.83
2023-05-18T18:35:50.820Z,101840.70
2023-05-18T18:38:18.841Z,101848.02
2023-05-18T18:40:46.941Z,101849.55
2023-05-18T18:43:15.050Z,101845.34
2023-05-18T18:45:43.278Z,101855.87
2023-05-18T18:48:11.434Z,101856.20
2023-05-18T18:50:39.464Z,101862.31
2023-05-18T18:53:07.567Z,101856.55
2023-05-18T18:55:35.618Z,101860.12
2023-05-18T18:58:03.773Z,101848.16
2023-05-18T19:00:31.948Z,101857.08
2023-05-18T19:02:59.976Z,101855.77
2023-05-18T19:05:28.383Z,101853.74
2023-05-18T19:07:57.015Z,101855.77
2023-05-18T19:10:25.174Z,101853.61
2023-05-18T19:12:53.704Z,101859.17
2023-05-18T19:15:22.678Z,101862.41
2023-05-18T19:17:55.081Z,101865.61
2023-05-18T19:20:23.656Z,101870.06
2023-05-18T19:22:51.808Z,101865.48
2023-05-18T19:25:19.844Z,101883.89
2023-05-18T19:27:47.935Z,101886.77
2023-05-18T19:30:22.387Z,101878.33
2023-05-18T19:32:51.279Z,101880.03
2023-05-18T19:35:20.267Z,101882.91
2023-05-18T19:37:48.665Z,101884.45
2023-05-18T19:40:17.847Z,101885.98
2023-05-18T19:42:46.045Z,101884.31
2023-05-18T19:45:14.198Z,101889.19
2023-05-18T19:47:42.215Z,101893.77
2023-05-18T19:50:11.746Z,101885.46
2023-05-18T19:52:39.733Z,101888.34
2023-05-18T19:55:08.333Z,101888.01
2023-05-18T19:57:36.396Z,101904.39
2023-05-18T20:00:05.469Z,101901.02
2023-05-18T20:02:33.529Z,101902.56
2023-05-18T20:05:02.027Z,101901.02
2023-05-18T20:07:30.064Z,101897.33
2023-05-18T20:09:58.069Z,101897.33
2023-05-18T20:12:26.257Z,101901.71
2023-05-18T20:14:57.613Z,101900.04
2023-05-18T20:17:26.987Z,101898.34
2023-05-18T20:19:55.107Z,101902.72
2023-05-18T20:22:23.184Z,101899.39
2023-05-18T20:24:51.262Z,101900.53
2023-05-18T20:27:19.423Z,101898.87
2023-05-18T20:29:48.490Z,101899.71
2023-05-18T20:32:16.823Z,101896.84
2023-05-18T20:34:45.879Z,101895.50
2023-05-18T20:37:15.222Z,101899.55
2023-05-18T20:39:51.661Z,101893.83
2023-05-18T20:42:23.279Z,101897.06
2023-05-18T20:44:52.826Z,101897.75
2023-05-18T20:47:21.705Z,101903.48
2023-05-18T20:49:49.882Z,101900.59
2023-05-18T20:52:18.201Z,101893.99
2023-05-18T20:54:46.318Z,101886.57
2023-05-18T20:57:14.483Z,101891.12
2023-05-18T20:59:42.773Z,101895.56
2023-05-18T21:02:10.774Z,101893.02
2023-05-18T21:04:38.796Z,101896.70
2023-05-18T21:07:06.924Z,101894.22
2023-05-18T21:09:35.860Z,101886.60
2023-05-18T21:12:04.057Z,101890.33
2023-05-18T21:14:32.204Z,101887.29
2023-05-18T21:17:00.203Z,101892.20
2023-05-18T21:19:28.190Z,101888.63
2023-05-18T21:21:56.327Z,101892.72
2023-05-18T21:24:24.325Z,101886.15
2023-05-18T21:26:52.395Z,101886.96
2023-05-18T21:29:20.444Z,101884.09
2023-05-18T21:31:49.978Z,101881.24
2023-05-18T21:34:18.098Z,101880.72
2023-05-18T21:36:46.114Z,101883.59
2023-05-18T21:39:14.127Z,101874.51
2023-05-18T21:41:43.738Z,101876.17
2023-05-18T21:44:11.889Z,101877.38
2023-05-18T21:46:40.084Z,101875.36
2023-05-18T21:49:08.477Z,101871.14
2023-05-18T21:51:36.512Z,101871.95
2023-05-18T21:54:05.340Z,101874.67
2023-05-18T21:56:35.957Z,101871.30
2023-05-18T21:59:04.012Z,101869.27
2023-05-18T22:01:32.303Z,101866.23
2023-05-18T22:04:00.329Z,101869.47
2023-05-18T22:06:28.312Z,101864.56
2023-05-18T22:08:56.584Z,101870.32
2023-05-18T22:11:24.687Z,101862.87
2023-05-18T22:13:52.841Z,101868.62
2023-05-18T22:16:20.852Z,101862.38
2023-05-18T22:18:48.874Z,101865.25
2023-05-18T22:21:17.120Z,101861.88
2023-05-18T22:23:45.151Z,101867.61
2023-05-18T22:26:13.609Z,101864.44
2023-05-18T22:28:41.883Z,101869.27
2023-05-18T22:31:09.980Z,101864.77
2023-05-18T22:33:37.978Z,101863.06
2023-05-18T22:36:06.338Z,101856.82
2023-05-18T22:38:34.280Z,101854.66
2023-05-18T22:41:02.245Z,101861.59
2023-05-18T22:43:31.170Z,101848.74
2023-05-18T22:45:59.371Z,101855.31
2023-05-18T22:48:27.660Z,101855.31
2023-05-18T22:50:55.937Z,101857.34
2023-05-18T22:53:23.897Z,101850.28
2023-05-18T22:55:51.919Z,101849.30
2023-05-18T22:58:19.909Z,101848.94
2023-05-18T23:00:47.867Z,101843.54
2023-05-18T23:03:18.543Z,101834.13
2023-05-18T23:05:49.582Z,101836.12
2023-05-18T23:08:17.625Z,101837.30
2023-05-18T23:10:45.763Z,101835.27
2023-05-18T23:13:17.476Z,101835.95
2023-05-18T23:15:45.737Z,101830.23
2023-05-18T23:18:13.967Z,101826.02
2023-05-18T23:20:43.341Z,101816.93
2023-05-18T23:23:11.395Z,101820.95
2023-05-18T23:25:39.417Z,101829.09
2023-05-18T23:28:07.435Z,101831.12
2023-05-18T23:30:35.384Z,101830.59
2023-05-18T23:33:03.867Z,101821.02
2023-05-18T23:35:32.328Z,101821.47
2023-05-18T23:38:03.412Z,101817.26
2023-05-18T23:40:31.837Z,101822.52
2023-05-18T23:43:02.132Z,101830.27
2023-05-18T23:45:30.475Z,101813.76
2023-05-18T23:47:59.141Z,101819.51
2023-05-18T23:50:27.612Z,101817.32
2023-05-18T23:52:55.694Z,101821.02
2023-05-18T23:55:27.039Z,101815.62
2023-05-18T23:57:54.984Z,101814.25
